createdAt,value
2022-10-05T00:01:57.968Z,8.73
2022-10-05T00:04:29.116Z,8.38
2022-10-05T00:07:00.096Z,9.23
2022-10-05T00:09:32.255Z,5.50
2022-10-05T00:12:13.767Z,6.72
2022-10-05T00:14:41.720Z,9.15
2022-10-05T00:17:15.175Z,7.65
2022-10-05T00:19:44.135Z,6.15
2022-10-05T00:22:15.638Z,6.90
2022-10-05T00:24:43.858Z,5.00
2022-10-05T00:27:17.972Z,6.20
2022-10-05T00:29:46.074Z,4.53
2022-10-05T00:32:13.962Z,6.07
2022-10-05T00:34:43.585Z,5.35
2022-10-05T00:37:12.121Z,6.72
2022-10-05T00:39:41.473Z,5.97
2022-10-05T00:42:27.033Z,4.40
2022-10-05T00:45:00.226Z,8.00
2022-10-05T00:47:37.688Z,5.72
2022-10-05T00:50:27.100Z,3.33
2022-10-05T00:53:03.436Z,5.93
2022-10-05T00:55:42.993Z,5.13
2022-10-05T00:58:23.727Z,6.53
2022-10-05T01:00:57.507Z,6.53
2022-10-05T01:03:34.201Z,9.63
2022-10-05T01:06:13.686Z,6.05
2022-10-05T01:08:52.390Z,6.60
2022-10-05T01:11:26.156Z,5.10
2022-10-05T01:14:04.617Z,5.93
2022-10-05T01:16:42.531Z,7.57
2022-10-05T01:19:27.019Z,5.13
2022-10-05T01:22:01.984Z,7.55
2022-10-05T01:24:51.405Z,5.93
2022-10-05T01:27:39.334Z,7.50
2022-10-05T01:30:12.313Z,5.45
2022-10-05T01:32:46.149Z,7.60
2022-10-05T01:35:27.664Z,4.97
2022-10-05T01:38:20.967Z,6.30
2022-10-05T01:41:00.641Z,3.97
2022-10-05T01:43:36.953Z,4.05
2022-10-05T01:46:13.742Z,6.57
2022-10-05T01:48:55.633Z,3.17
2022-10-05T01:51:37.469Z,2.80
2022-10-05T01:54:19.540Z,5.45
2022-10-05T01:56:57.935Z,6.83
2022-10-05T01:59:40.170Z,6.10
2022-10-05T02:02:12.091Z,4.03
2022-10-05T02:05:01.358Z,3.17
2022-10-05T02:07:33.859Z,4.40
2022-10-05T02:10:05.749Z,6.30
2022-10-05T02:12:38.910Z,5.20
2022-10-05T02:15:15.218Z,5.15
2022-10-05T02:17:49.503Z,3.47
2022-10-05T02:20:24.258Z,4.93
2022-10-05T02:22:54.906Z,6.75
2022-10-05T02:25:28.904Z,4.65
2022-10-05T02:28:01.861Z,6.45
2022-10-05T02:30:35.324Z,5.43
2022-10-05T02:33:11.843Z,3.70
2022-10-05T02:35:39.741Z,6.03
2022-10-05T02:41:18.446Z,4.72
2022-10-05T02:43:58.758Z,6.22
2022-10-05T02:46:34.860Z,8.45
2022-10-05T02:49:19.580Z,7.93
2022-10-05T02:51:52.505Z,4.18
2022-10-05T02:54:40.595Z,6.30
2022-10-05T02:57:17.880Z,9.60
2022-10-05T02:59:51.403Z,7.40
2022-10-05T03:02:25.034Z,5.50
2022-10-05T03:05:01.823Z,5.78
2022-10-05T03:07:34.943Z,7.20
2022-10-05T03:10:10.698Z,9.77
2022-10-05T03:12:52.262Z,3.70
2022-10-05T03:15:43.295Z,7.40
2022-10-05T03:18:23.379Z,5.80
2022-10-05T03:21:04.190Z,4.78
2022-10-05T03:23:45.599Z,6.55
2022-10-05T03:26:28.039Z,6.97
2022-10-05T03:29:30.425Z,8.63
2022-10-05T03:32:31.508Z,7.18
2022-10-05T03:35:08.025Z,8.48
2022-10-05T03:37:46.884Z,13.23
2022-10-05T03:40:27.160Z,7.72
2022-10-05T03:43:44.531Z,8.35
2022-10-05T03:46:19.476Z,11.48
2022-10-05T03:48:54.463Z,8.95
2022-10-05T03:51:32.306Z,8.23
2022-10-05T03:54:07.345Z,12.82
2022-10-05T03:56:39.825Z,8.23
2022-10-05T03:59:14.855Z,8.20
2022-10-05T04:01:50.949Z,6.03
2022-10-05T04:04:24.336Z,9.52
2022-10-05T04:06:56.046Z,9.43
2022-10-05T04:09:29.315Z,8.45
2022-10-05T04:12:04.234Z,7.40
2022-10-05T04:14:38.905Z,5.70
2022-10-05T04:17:13.099Z,12.52
2022-10-05T04:19:46.463Z,7.60
2022-10-05T04:22:22.075Z,10.10
2022-10-05T04:24:55.103Z,9.55
2022-10-05T04:27:29.180Z,9.55
2022-10-05T04:30:04.714Z,9.75
2022-10-05T04:32:38.666Z,9.68
2022-10-05T04:35:29.349Z,6.97
2022-10-05T04:38:10.251Z,9.82
2022-10-05T04:40:49.878Z,7.38
2022-10-05T04:43:25.841Z,11.52
2022-10-05T04:46:13.444Z,8.02
2022-10-05T04:48:56.876Z,7.75
2022-10-05T04:51:42.805Z,15.00
2022-10-05T04:54:25.499Z,7.15
2022-10-05T04:56:59.282Z,10.95
2022-10-05T04:59:46.931Z,9.63
2022-10-05T05:02:23.740Z,12.32
2022-10-05T05:05:08.556Z,12.25
2022-10-05T05:07:46.723Z,8.38
2022-10-05T05:10:48.063Z,9.43
2022-10-05T05:13:36.707Z,7.65
2022-10-05T05:16:11.667Z,9.60
2022-10-05T05:19:09.822Z,8.32
2022-10-05T05:21:45.373Z,8.98
2022-10-05T05:24:24.612Z,10.18
2022-10-05T05:27:11.891Z,9.10
2022-10-05T05:29:53.178Z,13.52
2022-10-05T05:32:30.089Z,13.00
2022-10-05T05:35:18.509Z,8.50
2022-10-05T05:37:56.759Z,10.43
2022-10-05T05:40:29.013Z,8.77
2022-10-05T05:43:01.386Z,10.60
2022-10-05T05:45:41.760Z,7.07
2022-10-05T05:48:20.133Z,8.18
2022-10-05T05:50:57.058Z,13.57
2022-10-05T05:53:33.008Z,7.22
2022-10-05T05:56:06.523Z,11.32
2022-10-05T05:58:44.735Z,8.88
2022-10-05T06:01:32.898Z,7.88
2022-10-05T06:04:11.940Z,7.35
2022-10-05T06:06:44.634Z,9.40
2022-10-05T06:09:21.898Z,14.32
2022-10-05T06:12:07.676Z,5.65
2022-10-05T06:14:44.292Z,11.48
2022-10-05T06:17:19.574Z,5.28
2022-10-05T06:19:49.712Z,8.32
2022-10-05T06:22:23.352Z,9.25
2022-10-05T06:25:07.145Z,9.73
2022-10-05T06:27:37.769Z,10.98
2022-10-05T06:30:13.345Z,9.93
2022-10-05T06:33:06.196Z,6.30
2022-10-05T06:35:50.290Z,11.90
2022-10-05T06:38:34.527Z,9.18
2022-10-05T06:41:12.684Z,7.70
2022-10-05T06:43:50.639Z,9.45
2022-10-05T06:46:45.339Z,9.50
2022-10-05T06:49:26.569Z,10.45
2022-10-05T06:51:59.394Z,12.40
2022-10-05T06:54:46.808Z,17.13
2022-10-05T06:57:36.592Z,8.80
2022-10-05T07:00:16.045Z,12.90
2022-10-05T07:02:54.230Z,16.25
2022-10-05T07:05:48.728Z,12.07
2022-10-05T07:08:25.788Z,15.13
2022-10-05T07:11:05.628Z,13.07
2022-10-05T07:13:52.064Z,13.50
2022-10-05T07:16:29.150Z,14.85
2022-10-05T07:19:11.409Z,10.13
2022-10-05T07:21:46.432Z,13.52
2022-10-05T07:24:27.242Z,13.15
2022-10-05T07:27:06.556Z,12.98
2022-10-05T07:29:39.232Z,16.23
2022-10-05T07:32:19.847Z,17.15
2022-10-05T07:34:58.585Z,14.00
2022-10-05T07:37:53.801Z,14.85
2022-10-05T07:40:30.442Z,16.35
2022-10-05T07:43:20.453Z,19.13
2022-10-05T07:45:54.718Z,11.23
2022-10-05T07:48:24.650Z,17.90
2022-10-05T07:51:01.148Z,15.63
2022-10-05T07:53:37.584Z,14.02
2022-10-05T07:56:13.494Z,17.50
2022-10-05T07:58:45.256Z,12.48
2022-10-05T08:01:19.607Z,11.70
2022-10-05T08:03:57.911Z,12.40
2022-10-05T08:06:40.596Z,13.10
2022-10-05T08:11:52.561Z,12.65
2022-10-05T08:14:28.811Z,13.65
2022-10-05T08:17:01.301Z,12.48
2022-10-05T08:19:38.362Z,11.63
2022-10-05T08:22:10.719Z,13.13
2022-10-05T08:24:45.111Z,15.35
2022-10-05T08:27:18.196Z,13.48
2022-10-05T08:29:56.625Z,10.75
2022-10-05T08:32:26.935Z,14.15
2022-10-05T08:35:00.669Z,13.30
2022-10-05T08:37:35.304Z,13.63
2022-10-05T08:40:27.118Z,13.63
2022-10-05T08:43:07.295Z,13.63
2022-10-05T08:46:03.974Z,11.70
2022-10-05T08:49:05.475Z,13.85
2022-10-05T08:51:50.561Z,16.20
2022-10-05T08:54:50.874Z,13.05
2022-10-05T08:57:48.642Z,12.05
2022-10-05T09:00:20.530Z,12.73
2022-10-05T09:03:09.150Z,10.63
2022-10-05T09:06:16.542Z,8.68
2022-10-05T09:09:10.973Z,12.38
2022-10-05T09:11:47.065Z,12.45
2022-10-05T09:14:28.873Z,11.85
2022-10-05T09:17:21.181Z,12.52
2022-10-05T09:20:12.037Z,11.52
2022-10-05T09:22:58.016Z,11.57
2022-10-05T09:25:42.942Z,14.18
2022-10-05T09:28:25.819Z,11.27
2022-10-05T09:31:04.486Z,11.40
2022-10-05T09:34:01.027Z,8.32
2022-10-05T09:37:07.052Z,9.23
2022-10-05T09:40:01.213Z,10.02
2022-10-05T09:42:48.690Z,9.63
2022-10-05T09:45:58.215Z,9.82
2022-10-05T09:48:59.687Z,10.00
2022-10-05T09:52:03.107Z,13.07
2022-10-05T09:55:06.626Z,10.27
2022-10-05T09:58:12.728Z,11.60
2022-10-05T10:01:09.259Z,8.73
2022-10-05T10:04:10.415Z,9.32
2022-10-05T10:06:51.248Z,9.18
2022-10-05T10:09:38.715Z,11.70
2022-10-05T10:12:25.294Z,8.95
2022-10-05T10:15:18.160Z,12.45
2022-10-05T10:18:05.087Z,8.93
2022-10-05T10:20:42.841Z,9.23
2022-10-05T10:23:26.086Z,8.13
2022-10-05T10:26:36.666Z,9.90
2022-10-05T10:29:34.246Z,8.50
2022-10-05T10:32:18.569Z,9.05
2022-10-05T10:35:05.764Z,8.15
2022-10-05T10:38:06.068Z,9.73
2022-10-05T10:40:42.458Z,11.02
2022-10-05T10:43:39.419Z,10.65
2022-10-05T10:46:19.772Z,9.70
2022-10-05T10:48:58.487Z,6.60
2022-10-05T10:51:47.344Z,6.80
2022-10-05T10:54:40.091Z,9.23
2022-10-05T10:57:11.129Z,8.52
2022-10-05T11:00:15.559Z,6.82
2022-10-05T11:03:09.800Z,7.47
2022-10-05T11:05:58.765Z,9.45
2022-10-05T11:09:01.538Z,6.10
2022-10-05T11:11:51.372Z,8.27
2022-10-05T11:14:57.226Z,6.68
2022-10-05T11:17:54.517Z,4.85
2022-10-05T11:20:57.073Z,5.32
2022-10-05T11:23:54.416Z,4.35
2022-10-05T11:26:41.019Z,9.70
2022-10-05T11:29:31.347Z,4.68
2022-10-05T11:32:40.976Z,4.53
2022-10-05T11:35:26.893Z,5.22
2022-10-05T11:38:16.654Z,6.53
2022-10-05T11:41:22.423Z,4.82
2022-10-05T11:44:13.875Z,7.97
2022-10-05T11:46:49.330Z,3.80
2022-10-05T11:49:33.590Z,5.50
2022-10-05T11:52:09.458Z,4.88
2022-10-05T11:55:09.898Z,8.77
2022-10-05T11:57:43.599Z,4.35
2022-10-05T12:00:17.165Z,5.53
2022-10-05T12:03:18.359Z,6.15
2022-10-05T12:06:05.382Z,3.50
2022-10-05T12:08:43.685Z,5.53
2022-10-05T12:11:32.810Z,4.63
2022-10-05T12:14:07.834Z,3.53
2022-10-05T12:16:43.224Z,4.85
2022-10-05T12:19:16.665Z,2.90
2022-10-05T12:21:51.146Z,4.80
2022-10-05T12:24:27.437Z,4.75
2022-10-05T12:27:02.435Z,4.07
2022-10-05T12:29:43.109Z,8.00
2022-10-05T12:32:17.409Z,4.97
2022-10-05T12:35:01.885Z,3.30
2022-10-05T12:37:42.921Z,3.90
2022-10-05T12:40:33.095Z,3.33
2022-10-05T12:43:12.549Z,3.58
2022-10-05T12:45:54.332Z,4.80
2022-10-05T12:48:44.002Z,4.37
2022-10-05T12:54:50.574Z,4.78
2022-10-05T12:57:26.889Z,4.55
2022-10-05T13:00:03.791Z,4.25
2022-10-05T13:02:42.324Z,4.60
2022-10-05T13:05:23.578Z,3.40
2022-10-05T13:08:08.013Z,2.85
2022-10-05T13:10:39.218Z,3.63
2022-10-05T13:13:25.155Z,2.67
2022-10-05T13:16:04.320Z,2.28
2022-10-05T13:18:45.773Z,3.38
2022-10-05T13:21:19.882Z,3.50
2022-10-05T13:23:57.811Z,3.58
2022-10-05T13:26:32.477Z,4.47
2022-10-05T13:29:10.343Z,1.80
2022-10-05T13:31:45.701Z,4.10
2022-10-05T13:34:24.720Z,2.47
2022-10-05T13:37:04.908Z,4.80
2022-10-05T13:39:47.499Z,4.90
2022-10-05T13:44:50.567Z,2.35
2022-10-05T13:47:28.935Z,3.50
2022-10-05T13:50:02.413Z,3.10
2022-10-05T13:52:46.933Z,3.92
2022-10-05T13:55:28.347Z,3.92
2022-10-05T13:58:05.866Z,5.28
2022-10-05T14:00:41.769Z,2.33
2022-10-05T14:03:31.926Z,2.63
2022-10-05T14:06:01.754Z,3.00
2022-10-05T14:08:33.312Z,2.28
2022-10-05T14:11:20.577Z,2.38
2022-10-05T14:13:50.685Z,2.65
2022-10-05T14:16:23.440Z,3.25
2022-10-05T14:18:56.178Z,4.00
2022-10-05T14:21:26.041Z,4.88
2022-10-05T14:23:56.387Z,3.00
2022-10-05T14:26:35.934Z,3.63
2022-10-05T14:29:17.054Z,2.97
2022-10-05T14:31:52.402Z,5.18
2022-10-05T14:34:31.954Z,2.20
2022-10-05T14:37:04.889Z,4.07
2022-10-05T14:39:35.697Z,3.45
2022-10-05T14:42:15.479Z,1.98
2022-10-05T14:44:43.800Z,2.67
2022-10-05T14:47:24.325Z,3.13
2022-10-05T14:50:13.939Z,3.08
2022-10-05T14:52:50.893Z,1.80
2022-10-05T14:55:31.540Z,5.68
2022-10-05T15:01:14.725Z,4.15
2022-10-05T15:03:48.430Z,3.30
2022-10-05T15:06:25.096Z,3.55
2022-10-05T15:09:09.136Z,3.97
2022-10-05T15:11:51.127Z,2.25
2022-10-05T15:14:24.095Z,4.95
2022-10-05T15:16:54.793Z,4.03
2022-10-05T15:19:28.551Z,2.05
2022-10-05T15:22:19.927Z,3.72
2022-10-05T15:25:01.820Z,2.43
2022-10-05T15:27:36.731Z,3.50
2022-10-05T15:30:10.508Z,2.83
2022-10-05T15:32:46.799Z,2.53
2022-10-05T15:35:38.320Z,4.20
2022-10-05T15:38:20.944Z,3.85
2022-10-05T15:43:47.701Z,3.40
2022-10-05T15:46:22.155Z,4.13
2022-10-05T15:48:57.737Z,4.65
2022-10-05T15:51:45.172Z,4.32
2022-10-05T15:54:44.354Z,3.22
2022-10-05T15:57:19.991Z,2.33
2022-10-05T15:59:58.855Z,2.67
2022-10-05T16:02:35.893Z,2.55
2022-10-05T16:05:19.877Z,4.50
2022-10-05T16:08:10.813Z,3.53
2022-10-05T16:10:45.357Z,4.28
2022-10-05T16:13:27.968Z,4.22
2022-10-05T16:16:02.014Z,5.70
2022-10-05T16:18:48.802Z,6.22
2022-10-05T16:21:27.779Z,3.83
2022-10-05T16:24:06.328Z,3.83
2022-10-05T16:26:46.045Z,3.75
2022-10-05T16:29:21.074Z,5.18
2022-10-05T16:31:57.798Z,2.45
2022-10-05T16:34:41.268Z,3.20
2022-10-05T16:37:18.346Z,4.30
2022-10-05T16:39:53.812Z,4.32
2022-10-05T16:42:43.030Z,5.65
2022-10-05T16:45:28.322Z,7.43
2022-10-05T16:48:06.025Z,7.88
2022-10-05T16:50:40.548Z,7.85
2022-10-05T16:53:16.319Z,3.72
2022-10-05T16:55:49.465Z,3.17
2022-10-05T16:58:25.577Z,4.40
2022-10-05T17:01:05.650Z,3.72
2022-10-05T17:03:46.669Z,3.83
2022-10-05T17:06:46.986Z,3.40
2022-10-05T17:09:38.169Z,4.75
2022-10-05T17:12:27.615Z,6.13
2022-10-05T17:15:10.199Z,4.95
2022-10-05T17:20:30.188Z,6.78
2022-10-05T17:23:16.980Z,5.72
2022-10-05T17:25:48.048Z,5.93
2022-10-05T17:28:37.010Z,5.95
2022-10-05T17:31:25.608Z,10.68
2022-10-05T17:34:27.331Z,4.80
2022-10-05T17:36:59.777Z,4.65
2022-10-05T17:42:49.150Z,5.30
2022-10-05T17:45:53.874Z,5.75
2022-10-05T17:49:07.680Z,7.28
2022-10-05T17:52:20.440Z,4.20
2022-10-05T17:55:27.263Z,8.02
2022-10-05T17:58:01.181Z,9.75
2022-10-05T18:00:42.101Z,4.07
2022-10-05T18:03:41.778Z,4.31
2022-10-05T18:06:33.260Z,9.77
2022-10-05T18:09:37.623Z,4.43
2022-10-05T18:12:28.692Z,3.15
2022-10-05T18:15:14.007Z,3.95
2022-10-05T18:17:45.344Z,4.88
2022-10-05T18:20:19.031Z,4.82
2022-10-05T18:22:47.312Z,4.55
2022-10-05T18:25:27.303Z,6.25
2022-10-05T18:28:09.964Z,4.18
2022-10-05T18:33:33.636Z,4.30
2022-10-05T18:36:21.067Z,3.90
2022-10-05T18:38:57.074Z,4.45
2022-10-05T18:41:39.927Z,7.05
2022-10-05T18:44:26.763Z,3.75
2022-10-05T18:47:03.065Z,4.00
2022-10-05T18:49:53.932Z,3.60
2022-10-05T18:52:31.762Z,2.80
2022-10-05T18:55:12.643Z,3.60
2022-10-05T18:57:59.204Z,5.10
2022-10-05T19:00:36.321Z,3.97
2022-10-05T19:03:15.743Z,5.07
2022-10-05T19:05:52.816Z,5.32
2022-10-05T19:08:29.970Z,4.35
2022-10-05T19:11:06.933Z,5.45
2022-10-05T19:13:45.112Z,8.73
2022-10-05T19:16:28.030Z,5.45
2022-10-05T19:19:12.347Z,3.03
2022-10-05T19:21:49.817Z,7.45
2022-10-05T19:24:41.703Z,7.15
2022-10-05T19:27:16.399Z,7.10
2022-10-05T19:30:03.738Z,7.90
2022-10-05T19:32:40.936Z,4.72
2022-10-05T19:35:21.071Z,5.90
2022-10-05T19:38:00.594Z,4.13
2022-10-05T19:40:35.748Z,4.07
2022-10-05T19:43:22.234Z,5.05
2022-10-05T19:46:04.298Z,3.63
2022-10-05T19:48:43.103Z,4.83
2022-10-05T19:51:19.471Z,6.38
2022-10-05T19:53:50.467Z,3.65
2022-10-05T19:56:22.581Z,5.85
2022-10-05T19:58:53.116Z,6.00
2022-10-05T20:01:27.518Z,5.88
2022-10-05T20:03:57.489Z,6.93
2022-10-05T20:06:26.895Z,8.10
2022-10-05T20:09:00.081Z,4.10
2022-10-05T20:11:31.168Z,4.65
2022-10-05T20:14:19.366Z,6.53
2022-10-05T20:17:06.904Z,4.18
2022-10-05T20:19:57.290Z,11.23
2022-10-05T20:22:32.757Z,4.80
2022-10-05T20:25:02.475Z,7.90
2022-10-05T20:27:48.458Z,6.03
2022-10-05T20:30:18.810Z,7.63
2022-10-05T20:32:50.474Z,5.70
2022-10-05T20:35:18.907Z,6.57
2022-10-05T20:37:46.579Z,6.32
2022-10-05T20:40:15.361Z,6.25
2022-10-05T20:42:43.135Z,6.30
2022-10-05T20:45:11.875Z,6.00
2022-10-05T20:47:40.602Z,5.25
2022-10-05T20:50:11.284Z,7.82
2022-10-05T20:52:39.388Z,5.10
2022-10-05T20:55:09.250Z,7.30
2022-10-05T20:57:41.704Z,7.72
2022-10-05T21:02:38.035Z,6.55
2022-10-05T21:05:07.972Z,7.30
2022-10-05T21:07:37.075Z,5.70
2022-10-05T21:10:05.731Z,4.28
2022-10-05T21:12:33.959Z,5.53
2022-10-05T21:15:04.635Z,7.13
2022-10-05T21:17:33.198Z,6.30
2022-10-05T21:20:00.974Z,6.72
2022-10-05T21:22:28.739Z,3.28
2022-10-05T21:24:58.398Z,8.45
2022-10-05T21:27:26.230Z,5.85
2022-10-05T21:29:54.367Z,4.50
2022-10-05T21:32:22.142Z,6.15
2022-10-05T21:34:50.128Z,6.18
2022-10-05T21:37:18.185Z,8.82
2022-10-05T21:39:45.879Z,4.10
2022-10-05T21:42:15.049Z,4.70
2022-10-05T21:44:42.890Z,6.82
2022-10-05T21:47:10.774Z,8.32
2022-10-05T21:49:38.743Z,4.80
2022-10-05T21:52:06.685Z,5.03
2022-10-05T21:54:35.040Z,7.78
2022-10-05T21:57:03.288Z,7.18
2022-10-05T21:59:35.250Z,5.60
2022-10-05T22:06:37.122Z,5.63
2022-10-05T22:09:06.973Z,5.75
2022-10-05T22:11:41.011Z,4.15
2022-10-05T22:14:09.197Z,4.97
2022-10-05T22:16:40.125Z,5.55
2022-10-05T22:19:14.952Z,5.22
2022-10-05T22:21:44.189Z,5.07
2022-10-05T22:24:12.463Z,6.97
2022-10-05T22:26:44.035Z,4.07
2022-10-05T22:29:11.872Z,4.97
2022-10-05T22:31:40.232Z,9.45
2022-10-05T22:34:08.370Z,4.05
2022-10-05T22:36:37.288Z,5.90
2022-10-05T22:39:11.011Z,8.80
2022-10-05T22:41:39.190Z,5.15
2022-10-05T22:44:07.216Z,5.57
2022-10-05T22:46:35.278Z,6.05
2022-10-05T22:49:03.263Z,4.65
2022-10-05T22:51:31.176Z,9.38
2022-10-05T22:53:58.989Z,6.10
2022-10-05T22:56:28.501Z,5.10
2022-10-05T22:58:58.918Z,4.95
2022-10-05T23:01:27.105Z,2.95
2022-10-05T23:03:55.631Z,3.65
2022-10-05T23:06:24.049Z,5.88
2022-10-05T23:08:51.792Z,4.45
2022-10-05T23:11:21.887Z,4.13
2022-10-05T23:13:52.121Z,4.85
2022-10-05T23:16:22.937Z,2.78
2022-10-05T23:18:52.914Z,6.10
2022-10-05T23:21:22.592Z,4.68
2022-10-05T23:23:51.361Z,3.05
2022-10-05T23:26:22.434Z,6.25
2022-10-05T23:28:51.735Z,4.45
2022-10-05T23:31:21.305Z,3.58
2022-10-05T23:33:49.783Z,4.35
2022-10-05T23:36:19.687Z,5.68
2022-10-05T23:38:47.997Z,7.78
2022-10-05T23:41:16.990Z,7.50
2022-10-05T23:43:45.231Z,2.85
2022-10-05T23:46:15.490Z,2.50
2022-10-05T23:48:43.398Z,3.72
2022-10-05T23:51:13.489Z,4.00
2022-10-05T23:53:41.469Z,2.75
2022-10-05T23:56:10.170Z,5.93
2022-10-05T23:58:38.117Z,3.30
